sensor_id;sensor_type;location;lat;lon;timestamp;temperature;humidity
21698;DHT22;11010;49.548;11.926;2024-02-04T00:00:31;6.50;99.90
21698;DHT22;11010;49.548;11.926;2024-02-04T00:02:59;6.40;99.90
21698;DHT22;11010;49.548;11.926;2024-02-04T00:05:26;6.90;99.90
21698;DHT22;11010;49.548;11.926;2024-02-04T00:07:53;6.40;99.90
21698;DHT22;11010;49.548;11.926;2024-02-04T00:10:20;7.00;99.90
21698;DHT22;11010;49.548;11.926;2024-02-04T00:12:47;6.90;99.90
21698;DHT22;11010;49.548;11.926;2024-02-04T00:15:15;6.40;99.90
21698;DHT22;11010;49.548;11.926;2024-02-04T00:17:42;6.70;99.90
21698;DHT22;11010;49.548;11.926;2024-02-04T00:20:09;6.50;99.90
21698;DHT22;11010;49.548;11.926;2024-02-04T00:22:37;6.70;99.90
21698;DHT22;11010;49.548;11.926;2024-02-04T00:25:04;6.90;99.90
21698;DHT22;11010;49.548;11.926;2024-02-04T00:27:32;6.60;99.90
21698;DHT22;11010;49.548;11.926;2024-02-04T00:30:00;6.40;99.90
21698;DHT22;11010;49.548;11.926;2024-02-04T00:32:27;6.50;99.90
21698;DHT22;11010;49.548;11.926;2024-02-04T00:34:55;7.00;99.90
21698;DHT22;11010;49.548;11.926;2024-02-04T00:37:22;6.50;99.90
21698;DHT22;11010;49.548;11.926;2024-02-04T00:39:49;6.50;99.90
21698;DHT22;11010;49.548;11.926;2024-02-04T00:42:17;6.50;99.90
21698;DHT22;11010;49.548;11.926;2024-02-04T00:44:44;6.90;99.90
21698;DHT22;11010;49.548;11.926;2024-02-04T00:47:11;7.00;99.90
21698;DHT22;11010;49.548;11.926;2024-02-04T00:49:40;6.80;99.90
21698;DHT22;11010;49.548;11.926;2024-02-04T00:52:07;7.00;99.90
21698;DHT22;11010;49.548;11.926;2024-02-04T00:54:35;6.70;99.90
21698;DHT22;11010;49.548;11.926;2024-02-04T00:57:02;6.70;99.90
21698;DHT22;11010;49.548;11.926;2024-02-04T00:59:29;7.00;99.90
21698;DHT22;11010;49.548;11.926;2024-02-04T01:01:57;6.90;99.90
21698;DHT22;11010;49.548;11.926;2024-02-04T01:04:25;6.70;99.90
21698;DHT22;11010;49.548;11.926;2024-02-04T01:06:53;6.70;99.90
21698;DHT22;11010;49.548;11.926;2024-02-04T01:09:28;6.90;99.90
21698;DHT22;11010;49.548;11.926;2024-02-04T01:11:56;7.00;99.90
21698;DHT22;11010;49.548;11.926;2024-02-04T01:14:24;6.80;99.90
21698;DHT22;11010;49.548;11.926;2024-02-04T01:16:51;6.50;99.90
21698;DHT22;11010;49.548;11.926;2024-02-04T01:19:18;6.90;99.90
21698;DHT22;11010;49.548;11.926;2024-02-04T01:21:46;6.60;99.90
21698;DHT22;11010;49.548;11.926;2024-02-04T01:24:13;6.90;99.90
21698;DHT22;11010;49.548;11.926;2024-02-04T01:26:40;6.80;99.90
21698;DHT22;11010;49.548;11.926;2024-02-04T01:29:07;7.00;99.90
21698;DHT22;11010;49.548;11.926;2024-02-04T01:31:35;6.60;99.90
21698;DHT22;11010;49.548;11.926;2024-02-04T01:34:02;6.60;99.90
21698;DHT22;11010;49.548;11.926;2024-02-04T01:36:30;6.60;99.90
21698;DHT22;11010;49.548;11.926;2024-02-04T01:38:57;6.60;99.90
21698;DHT22;11010;49.548;11.926;2024-02-04T01:41:25;6.90;99.90
21698;DHT22;11010;49.548;11.926;2024-02-04T01:43:54;6.80;99.90
21698;DHT22;11010;49.548;11.926;2024-02-04T01:46:23;7.00;99.90
21698;DHT22;11010;49.548;11.926;2024-02-04T01:48:50;7.00;99.90
21698;DHT22;11010;49.548;11.926;2024-02-04T01:51:19;6.80;99.90
21698;DHT22;11010;49.548;11.926;2024-02-04T01:53:47;7.00;99.90
21698;DHT22;11010;49.548;11.926;2024-02-04T01:56:16;7.00;99.90
21698;DHT22;11010;49.548;11.926;2024-02-04T01:58:44;7.00;99.90
21698;DHT22;11010;49.548;11.926;2024-02-04T02:01:13;7.00;99.90
21698;DHT22;11010;49.548;11.926;2024-02-04T02:03:41;6.60;99.90
21698;DHT22;11010;49.548;11.926;2024-02-04T02:06:08;6.70;99.90
21698;DHT22;11010;49.548;11.926;2024-02-04T02:08:36;7.00;99.90
21698;DHT22;11010;49.548;11.926;2024-02-04T02:11:11;7.00;99.90
21698;DHT22;11010;49.548;11.926;2024-02-04T02:13:41;6.60;99.90
21698;DHT22;11010;49.548;11.926;2024-02-04T02:16:16;6.90;99.90
21698;DHT22;11010;49.548;11.926;2024-02-04T02:18:50;6.70;99.90
21698;DHT22;11010;49.548;11.926;2024-02-04T02:24:48;6.60;99.90
21698;DHT22;11010;49.548;11.926;2024-02-04T02:27:08;6.60;99.90
21698;DHT22;11010;49.548;11.926;2024-02-04T02:29:35;6.90;99.90
21698;DHT22;11010;49.548;11.926;2024-02-04T02:32:03;7.00;99.90
21698;DHT22;11010;49.548;11.926;2024-02-04T02:34:30;6.60;99.90
21698;DHT22;11010;49.548;11.926;2024-02-04T02:40:08;6.70;99.90
21698;DHT22;11010;49.548;11.926;2024-02-04T02:42:38;6.90;99.90
21698;DHT22;11010;49.548;11.926;2024-02-04T02:45:09;6.90;99.90
21698;DHT22;11010;49.548;11.926;2024-02-04T02:47:38;6.90;99.90
21698;DHT22;11010;49.548;11.926;2024-02-04T02:50:07;6.50;99.90
21698;DHT22;11010;49.548;11.926;2024-02-04T02:52:35;6.40;99.90
21698;DHT22;11010;49.548;11.926;2024-02-04T02:55:02;6.40;99.90
21698;DHT22;11010;49.548;11.926;2024-02-04T02:57:30;6.90;99.90
21698;DHT22;11010;49.548;11.926;2024-02-04T02:59:57;6.90;99.90
21698;DHT22;11010;49.548;11.926;2024-02-04T03:02:24;6.40;99.90
21698;DHT22;11010;49.548;11.926;2024-02-04T03:04:52;6.30;99.90
21698;DHT22;11010;49.548;11.926;2024-02-04T03:07:19;6.30;99.90
21698;DHT22;11010;49.548;11.926;2024-02-04T03:09:47;6.80;99.90
21698;DHT22;11010;49.548;11.926;2024-02-04T03:12:15;6.80;99.90
21698;DHT22;11010;49.548;11.926;2024-02-04T03:14:42;6.90;99.90
21698;DHT22;11010;49.548;11.926;2024-02-04T03:17:09;6.80;99.90
21698;DHT22;11010;49.548;11.926;2024-02-04T03:19:38;6.30;99.90
21698;DHT22;11010;49.548;11.926;2024-02-04T03:22:06;6.70;99.90
21698;DHT22;11010;49.548;11.926;2024-02-04T03:24:33;6.80;99.90
21698;DHT22;11010;49.548;11.926;2024-02-04T03:27:01;6.50;99.90
21698;DHT22;11010;49.548;11.926;2024-02-04T03:29:28;6.30;99.90
21698;DHT22;11010;49.548;11.926;2024-02-04T03:31:56;6.50;99.90
21698;DHT22;11010;49.548;11.926;2024-02-04T03:34:23;6.90;99.90
21698;DHT22;11010;49.548;11.926;2024-02-04T03:36:51;6.30;99.90
21698;DHT22;11010;49.548;11.926;2024-02-04T03:39:18;6.90;99.90
21698;DHT22;11010;49.548;11.926;2024-02-04T03:41:46;6.60;99.90
21698;DHT22;11010;49.548;11.926;2024-02-04T03:44:13;6.20;99.90
21698;DHT22;11010;49.548;11.926;2024-02-04T03:46:40;6.60;99.90
21698;DHT22;11010;49.548;11.926;2024-02-04T03:49:09;6.90;99.90
21698;DHT22;11010;49.548;11.926;2024-02-04T03:51:36;6.30;99.90
21698;DHT22;11010;49.548;11.926;2024-02-04T03:54:04;6.90;99.90
21698;DHT22;11010;49.548;11.926;2024-02-04T03:56:31;6.30;99.90
21698;DHT22;11010;49.548;11.926;2024-02-04T03:58:59;6.30;99.90
21698;DHT22;11010;49.548;11.926;2024-02-04T04:01:26;6.90;99.90
21698;DHT22;11010;49.548;11.926;2024-02-04T04:03:53;6.20;99.90
21698;DHT22;11010;49.548;11.926;2024-02-04T04:06:21;6.30;99.90
21698;DHT22;11010;49.548;11.926;2024-02-04T04:08:48;6.50;99.90
21698;DHT22;11010;49.548;11.926;2024-02-04T04:11:15;6.70;99.90
21698;DHT22;11010;49.548;11.926;2024-02-04T04:13:42;6.40;99.90
21698;DHT22;11010;49.548;11.926;2024-02-04T04:16:10;6.30;99.90
21698;DHT22;11010;49.548;11.926;2024-02-04T04:18:38;6.50;99.90
21698;DHT22;11010;49.548;11.926;2024-02-04T04:21:05;6.80;99.90
21698;DHT22;11010;49.548;11.926;2024-02-04T04:23:32;6.30;99.90
21698;DHT22;11010;49.548;11.926;2024-02-04T04:25:59;6.90;99.90
21698;DHT22;11010;49.548;11.926;2024-02-04T04:28:27;6.80;99.90
21698;DHT22;11010;49.548;11.926;2024-02-04T04:30:54;6.50;99.90
21698;DHT22;11010;49.548;11.926;2024-02-04T04:33:22;6.20;99.90
21698;DHT22;11010;49.548;11.926;2024-02-04T04:35:49;6.90;99.90
21698;DHT22;11010;49.548;11.926;2024-02-04T04:38:16;6.90;99.90
21698;DHT22;11010;49.548;11.926;2024-02-04T04:40:44;6.20;99.90
21698;DHT22;11010;49.548;11.926;2024-02-04T04:43:11;6.70;99.90
21698;DHT22;11010;49.548;11.926;2024-02-04T04:45:40;6.90;99.90
21698;DHT22;11010;49.548;11.926;2024-02-04T04:48:07;6.70;99.90
21698;DHT22;11010;49.548;11.926;2024-02-04T04:50:37;6.70;99.90
21698;DHT22;11010;49.548;11.926;2024-02-04T04:53:05;6.80;99.90
21698;DHT22;11010;49.548;11.926;2024-02-04T04:55:32;6.70;99.90
21698;DHT22;11010;49.548;11.926;2024-02-04T04:57:59;6.90;99.90
21698;DHT22;11010;49.548;11.926;2024-02-04T05:00:26;6.30;99.90
21698;DHT22;11010;49.548;11.926;2024-02-04T05:02:54;6.50;99.90
21698;DHT22;11010;49.548;11.926;2024-02-04T05:05:21;6.20;99.90
21698;DHT22;11010;49.548;11.926;2024-02-04T05:07:48;6.40;99.90
21698;DHT22;11010;49.548;11.926;2024-02-04T05:10:16;6.50;99.90
21698;DHT22;11010;49.548;11.926;2024-02-04T05:12:43;6.90;99.90
21698;DHT22;11010;49.548;11.926;2024-02-04T05:15:10;6.30;99.90
21698;DHT22;11010;49.548;11.926;2024-02-04T05:17:37;6.20;99.90
21698;DHT22;11010;49.548;11.926;2024-02-04T05:20:05;6.90;99.90
21698;DHT22;11010;49.548;11.926;2024-02-04T05:22:34;6.50;99.90
21698;DHT22;11010;49.548;11.926;2024-02-04T05:25:02;6.40;99.90
21698;DHT22;11010;49.548;11.926;2024-02-04T05:27:30;6.30;99.90
21698;DHT22;11010;49.548;11.926;2024-02-04T05:29:57;6.90;99.90
21698;DHT22;11010;49.548;11.926;2024-02-04T05:32:25;6.90;99.90
21698;DHT22;11010;49.548;11.926;2024-02-04T05:34:52;6.20;99.90
21698;DHT22;11010;49.548;11.926;2024-02-04T05:37:19;6.80;99.90
21698;DHT22;11010;49.548;11.926;2024-02-04T05:39:47;6.70;99.90
21698;DHT22;11010;49.548;11.926;2024-02-04T05:42:14;6.70;99.90
21698;DHT22;11010;49.548;11.926;2024-02-04T05:44:41;6.20;99.90
21698;DHT22;11010;49.548;11.926;2024-02-04T05:47:08;6.50;99.90
21698;DHT22;11010;49.548;11.926;2024-02-04T05:49:37;6.30;99.90
21698;DHT22;11010;49.548;11.926;2024-02-04T05:52:05;6.80;99.90
21698;DHT22;11010;49.548;11.926;2024-02-04T05:54:37;6.20;99.90
21698;DHT22;11010;49.548;11.926;2024-02-04T05:57:05;6.20;99.90
21698;DHT22;11010;49.548;11.926;2024-02-04T05:59:33;6.90;99.90
21698;DHT22;11010;49.548;11.926;2024-02-04T06:02:01;6.30;99.90
21698;DHT22;11010;49.548;11.926;2024-02-04T06:04:29;6.70;99.90
21698;DHT22;11010;49.548;11.926;2024-02-04T06:06:56;6.60;99.90
21698;DHT22;11010;49.548;11.926;2024-02-04T06:09:23;6.20;99.90
21698;DHT22;11010;49.548;11.926;2024-02-04T06:11:51;6.20;99.90
21698;DHT22;11010;49.548;11.926;2024-02-04T06:14:18;6.80;99.90
21698;DHT22;11010;49.548;11.926;2024-02-04T06:16:45;6.80;99.90
21698;DHT22;11010;49.548;11.926;2024-02-04T06:19:12;6.40;99.90
21698;DHT22;11010;49.548;11.926;2024-02-04T06:21:41;6.10;99.90
21698;DHT22;11010;49.548;11.926;2024-02-04T06:24:09;6.80;99.90
21698;DHT22;11010;49.548;11.926;2024-02-04T06:26:38;6.20;99.90
21698;DHT22;11010;49.548;11.926;2024-02-04T06:29:06;6.50;99.90
21698;DHT22;11010;49.548;11.926;2024-02-04T06:31:33;6.10;99.90
21698;DHT22;11010;49.548;11.926;2024-02-04T06:34:01;6.30;99.90
21698;DHT22;11010;49.548;11.926;2024-02-04T06:36:28;6.10;99.90
21698;DHT22;11010;49.548;11.926;2024-02-04T06:38:56;6.60;99.90
21698;DHT22;11010;49.548;11.926;2024-02-04T06:41:23;6.10;99.90
21698;DHT22;11010;49.548;11.926;2024-02-04T06:43:50;6.50;99.90
21698;DHT22;11010;49.548;11.926;2024-02-04T06:46:25;6.70;99.90
21698;DHT22;11010;49.548;11.926;2024-02-04T06:48:53;6.70;99.90
21698;DHT22;11010;49.548;11.926;2024-02-04T06:51:21;6.80;99.90
21698;DHT22;11010;49.548;11.926;2024-02-04T06:53:48;6.20;99.90
21698;DHT22;11010;49.548;11.926;2024-02-04T06:56:16;6.80;99.90
21698;DHT22;11010;49.548;11.926;2024-02-04T06:58:43;6.70;99.90
21698;DHT22;11010;49.548;11.926;2024-02-04T07:01:11;6.30;99.90
21698;DHT22;11010;49.548;11.926;2024-02-04T07:03:39;6.20;99.90
21698;DHT22;11010;49.548;11.926;2024-02-04T07:06:06;6.70;99.90
21698;DHT22;11010;49.548;11.926;2024-02-04T07:08:34;6.20;99.90
21698;DHT22;11010;49.548;11.926;2024-02-04T07:11:01;6.70;99.90
21698;DHT22;11010;49.548;11.926;2024-02-04T07:13:29;6.20;99.90
21698;DHT22;11010;49.548;11.926;2024-02-04T07:15:56;6.80;99.90
21698;DHT22;11010;49.548;11.926;2024-02-04T07:18:24;6.70;99.90
21698;DHT22;11010;49.548;11.926;2024-02-04T07:20:52;6.70;99.90
21698;DHT22;11010;49.548;11.926;2024-02-04T07:23:19;6.20;99.90
21698;DHT22;11010;49.548;11.926;2024-02-04T07:25:47;6.80;99.90
21698;DHT22;11010;49.548;11.926;2024-02-04T07:28:15;6.30;99.90
21698;DHT22;11010;49.548;11.926;2024-02-04T07:30:42;6.20;99.90
21698;DHT22;11010;49.548;11.926;2024-02-04T07:33:09;6.20;99.90
21698;DHT22;11010;49.548;11.926;2024-02-04T07:35:36;6.20;99.90
21698;DHT22;11010;49.548;11.926;2024-02-04T07:38:04;6.80;99.90
21698;DHT22;11010;49.548;11.926;2024-02-04T07:40:31;6.20;99.90
21698;DHT22;11010;49.548;11.926;2024-02-04T07:42:58;6.20;99.90
21698;DHT22;11010;49.548;11.926;2024-02-04T07:45:25;6.40;99.90
21698;DHT22;11010;49.548;11.926;2024-02-04T07:47:53;6.40;99.90
21698;DHT22;11010;49.548;11.926;2024-02-04T07:50:20;6.60;99.90
21698;DHT22;11010;49.548;11.926;2024-02-04T07:52:47;6.60;99.90
21698;DHT22;11010;49.548;11.926;2024-02-04T07:55:15;6.50;99.90
21698;DHT22;11010;49.548;11.926;2024-02-04T07:57:42;6.20;99.90
21698;DHT22;11010;49.548;11.926;2024-02-04T08:00:09;6.20;99.90
21698;DHT22;11010;49.548;11.926;2024-02-04T08:02:40;6.50;99.90
21698;DHT22;11010;49.548;11.926;2024-02-04T08:05:08;6.30;99.90
21698;DHT22;11010;49.548;11.926;2024-02-04T08:07:35;6.20;99.90
21698;DHT22;11010;49.548;11.926;2024-02-04T08:10:03;6.40;99.90
21698;DHT22;11010;49.548;11.926;2024-02-04T08:12:30;6.30;99.90
21698;DHT22;11010;49.548;11.926;2024-02-04T08:14:57;6.20;99.90
21698;DHT22;11010;49.548;11.926;2024-02-04T08:17:25;6.30;99.90
21698;DHT22;11010;49.548;11.926;2024-02-04T08:19:52;6.90;99.90
21698;DHT22;11010;49.548;11.926;2024-02-04T08:22:20;6.80;99.90
21698;DHT22;11010;49.548;11.926;2024-02-04T08:24:47;6.60;99.90
21698;DHT22;11010;49.548;11.926;2024-02-04T08:27:14;6.40;99.90
21698;DHT22;11010;49.548;11.926;2024-02-04T08:29:45;6.20;99.90
21698;DHT22;11010;49.548;11.926;2024-02-04T08:32:12;6.30;99.90
21698;DHT22;11010;49.548;11.926;2024-02-04T08:34:40;6.80;99.90
21698;DHT22;11010;49.548;11.926;2024-02-04T08:37:08;6.20;99.90
21698;DHT22;11010;49.548;11.926;2024-02-04T08:39:35;7.00;99.90
21698;DHT22;11010;49.548;11.926;2024-02-04T08:42:03;6.90;99.90
21698;DHT22;11010;49.548;11.926;2024-02-04T08:44:31;7.00;99.90
21698;DHT22;11010;49.548;11.926;2024-02-04T08:47:06;6.50;99.90
21698;DHT22;11010;49.548;11.926;2024-02-04T08:49:37;6.40;99.90
21698;DHT22;11010;49.548;11.926;2024-02-04T08:52:05;7.00;99.90
21698;DHT22;11010;49.548;11.926;2024-02-04T08:54:32;7.00;99.90
21698;DHT22;11010;49.548;11.926;2024-02-04T08:56:59;6.30;99.90
21698;DHT22;11010;49.548;11.926;2024-02-04T08:59:27;7.00;99.90
21698;DHT22;11010;49.548;11.926;2024-02-04T09:01:54;6.90;99.90
21698;DHT22;11010;49.548;11.926;2024-02-04T09:04:21;6.50;99.90
21698;DHT22;11010;49.548;11.926;2024-02-04T09:06:49;6.60;99.90
21698;DHT22;11010;49.548;11.926;2024-02-04T09:09:16;6.80;99.90
21698;DHT22;11010;49.548;11.926;2024-02-04T09:11:44;6.60;99.90
21698;DHT22;11010;49.548;11.926;2024-02-04T09:14:11;6.40;99.90
21698;DHT22;11010;49.548;11.926;2024-02-04T09:16:38;6.40;99.90
21698;DHT22;11010;49.548;11.926;2024-02-04T09:19:06;6.70;99.90
21698;DHT22;11010;49.548;11.926;2024-02-04T09:21:34;6.40;99.90
21698;DHT22;11010;49.548;11.926;2024-02-04T09:24:01;6.40;99.90
21698;DHT22;11010;49.548;11.926;2024-02-04T09:26:29;6.70;99.90
21698;DHT22;11010;49.548;11.926;2024-02-04T09:28:56;7.10;99.90
21698;DHT22;11010;49.548;11.926;2024-02-04T09:31:23;6.90;99.90
21698;DHT22;11010;49.548;11.926;2024-02-04T09:33:51;6.40;99.90
21698;DHT22;11010;49.548;11.926;2024-02-04T09:36:18;7.00;99.90
21698;DHT22;11010;49.548;11.926;2024-02-04T09:38:46;7.10;99.90
21698;DHT22;11010;49.548;11.926;2024-02-04T09:41:13;6.60;99.90
21698;DHT22;11010;49.548;11.926;2024-02-04T09:43:40;6.50;99.90
21698;DHT22;11010;49.548;11.926;2024-02-04T09:46:08;6.60;99.90
21698;DHT22;11010;49.548;11.926;2024-02-04T09:48:36;6.50;99.90
21698;DHT22;11010;49.548;11.926;2024-02-04T09:51:06;6.60;99.90
21698;DHT22;11010;49.548;11.926;2024-02-04T09:53:35;6.80;99.90
21698;DHT22;11010;49.548;11.926;2024-02-04T09:56:04;7.10;99.90
21698;DHT22;11010;49.548;11.926;2024-02-04T09:58:34;7.00;99.90
21698;DHT22;11010;49.548;11.926;2024-02-04T10:01:03;6.70;99.90
21698;DHT22;11010;49.548;11.926;2024-02-04T10:03:31;6.70;99.90
21698;DHT22;11010;49.548;11.926;2024-02-04T10:05:59;7.30;99.90
21698;DHT22;11010;49.548;11.926;2024-02-04T10:08:26;6.70;99.90
21698;DHT22;11010;49.548;11.926;2024-02-04T10:10:54;6.70;99.90
21698;DHT22;11010;49.548;11.926;2024-02-04T10:13:22;6.70;99.90
21698;DHT22;11010;49.548;11.926;2024-02-04T10:15:52;7.10;99.90
21698;DHT22;11010;49.548;11.926;2024-02-04T10:18:19;7.00;99.90
21698;DHT22;11010;49.548;11.926;2024-02-04T10:20:47;7.20;99.90
21698;DHT22;11010;49.548;11.926;2024-02-04T10:23:14;6.80;99.90
21698;DHT22;11010;49.548;11.926;2024-02-04T10:25:43;7.30;99.90
21698;DHT22;11010;49.548;11.926;2024-02-04T10:28:10;7.30;99.90
21698;DHT22;11010;49.548;11.926;2024-02-04T10:30:38;7.00;99.90
21698;DHT22;11010;49.548;11.926;2024-02-04T10:33:07;7.30;99.90
21698;DHT22;11010;49.548;11.926;2024-02-04T10:35:34;6.90;99.90
21698;DHT22;11010;49.548;11.926;2024-02-04T10:38:01;7.30;99.90
21698;DHT22;11010;49.548;11.926;2024-02-04T10:40:29;6.90;99.90
21698;DHT22;11010;49.548;11.926;2024-02-04T10:43:00;7.30;99.90
21698;DHT22;11010;49.548;11.926;2024-02-04T10:45:32;7.30;99.90
21698;DHT22;11010;49.548;11.926;2024-02-04T10:48:01;7.30;99.90
21698;DHT22;11010;49.548;11.926;2024-02-04T10:50:32;7.40;99.90
21698;DHT22;11010;49.548;11.926;2024-02-04T10:53:05;6.90;99.90
21698;DHT22;11010;49.548;11.926;2024-02-04T10:55:40;7.40;99.90
21698;DHT22;11010;49.548;11.926;2024-02-04T10:58:09;7.40;99.90
21698;DHT22;11010;49.548;11.926;2024-02-04T11:00:37;7.50;99.90
21698;DHT22;11010;49.548;11.926;2024-02-04T11:03:05;7.20;99.90
21698;DHT22;11010;49.548;11.926;2024-02-04T11:05:34;7.00;99.90
21698;DHT22;11010;49.548;11.926;2024-02-04T11:08:06;7.20;99.90
21698;DHT22;11010;49.548;11.926;2024-02-04T11:10:34;7.10;99.90
21698;DHT22;11010;49.548;11.926;2024-02-04T11:13:02;7.30;99.90
21698;DHT22;11010;49.548;11.926;2024-02-04T11:15:35;7.30;99.90
21698;DHT22;11010;49.548;11.926;2024-02-04T11:21:23;7.50;99.90
21698;DHT22;11010;49.548;11.926;2024-02-04T11:24:13;7.30;99.90
21698;DHT22;11010;49.548;11.926;2024-02-04T11:26:45;7.20;99.90
21698;DHT22;11010;49.548;11.926;2024-02-04T11:29:13;7.00;99.90
21698;DHT22;11010;49.548;11.926;2024-02-04T11:31:40;6.90;99.90
21698;DHT22;11010;49.548;11.926;2024-02-04T11:34:08;7.00;99.90
21698;DHT22;11010;49.548;11.926;2024-02-04T11:36:40;7.00;99.90
21698;DHT22;11010;49.548;11.926;2024-02-04T11:39:17;7.50;99.90
21698;DHT22;11010;49.548;11.926;2024-02-04T11:41:46;7.10;99.90
21698;DHT22;11010;49.548;11.926;2024-02-04T11:44:26;7.50;99.90
21698;DHT22;11010;49.548;11.926;2024-02-04T11:46:55;7.50;99.90
21698;DHT22;11010;49.548;11.926;2024-02-04T11:49:25;7.40;99.90
21698;DHT22;11010;49.548;11.926;2024-02-04T11:51:53;7.00;99.90
21698;DHT22;11010;49.548;11.926;2024-02-04T11:54:21;7.00;99.90
21698;DHT22;11010;49.548;11.926;2024-02-04T11:56:50;7.50;99.90
21698;DHT22;11010;49.548;11.926;2024-02-04T11:59:23;7.20;99.90
21698;DHT22;11010;49.548;11.926;2024-02-04T12:01:56;7.20;99.90
21698;DHT22;11010;49.548;11.926;2024-02-04T12:04:27;7.00;99.90
21698;DHT22;11010;49.548;11.926;2024-02-04T12:06:56;7.20;99.90
21698;DHT22;11010;49.548;11.926;2024-02-04T12:09:24;7.50;99.90
21698;DHT22;11010;49.548;11.926;2024-02-04T12:11:54;7.10;99.90
21698;DHT22;11010;49.548;11.926;2024-02-04T12:14:22;7.50;99.90
21698;DHT22;11010;49.548;11.926;2024-02-04T12:16:49;7.30;99.90
21698;DHT22;11010;49.548;11.926;2024-02-04T12:19:16;7.50;99.90
21698;DHT22;11010;49.548;11.926;2024-02-04T12:21:44;7.30;99.90
21698;DHT22;11010;49.548;11.926;2024-02-04T12:24:12;7.50;99.90
21698;DHT22;11010;49.548;11.926;2024-02-04T12:26:39;7.50;99.90
21698;DHT22;11010;49.548;11.926;2024-02-04T12:29:07;7.20;99.90
21698;DHT22;11010;49.548;11.926;2024-02-04T12:31:34;7.50;99.90
21698;DHT22;11010;49.548;11.926;2024-02-04T12:34:05;7.00;99.90
21698;DHT22;11010;49.548;11.926;2024-02-04T12:36:32;7.00;99.90
21698;DHT22;11010;49.548;11.926;2024-02-04T12:39:02;7.30;99.90
21698;DHT22;11010;49.548;11.926;2024-02-04T12:41:30;7.40;99.90
21698;DHT22;11010;49.548;11.926;2024-02-04T12:43:59;7.40;99.90
21698;DHT22;11010;49.548;11.926;2024-02-04T12:46:27;7.50;99.90
21698;DHT22;11010;49.548;11.926;2024-02-04T12:48:56;7.50;99.90
21698;DHT22;11010;49.548;11.926;2024-02-04T12:51:31;7.20;99.90
21698;DHT22;11010;49.548;11.926;2024-02-04T12:54:11;7.50;99.90
21698;DHT22;11010;49.548;11.926;2024-02-04T12:56:51;7.30;99.90
21698;DHT22;11010;49.548;11.926;2024-02-04T12:59:31;7.40;99.90
21698;DHT22;11010;49.548;11.926;2024-02-04T13:02:03;7.40;99.90
21698;DHT22;11010;49.548;11.926;2024-02-04T13:04:42;7.70;99.90
21698;DHT22;11010;49.548;11.926;2024-02-04T13:07:11;7.70;99.90
21698;DHT22;11010;49.548;11.926;2024-02-04T13:09:41;7.70;99.90
21698;DHT22;11010;49.548;11.926;2024-02-04T13:12:10;7.70;99.90
21698;DHT22;11010;49.548;11.926;2024-02-04T13:14:38;7.60;99.90
21698;DHT22;11010;49.548;11.926;2024-02-04T13:17:05;7.70;99.90
21698;DHT22;11010;49.548;11.926;2024-02-04T13:19:34;7.60;99.90
21698;DHT22;11010;49.548;11.926;2024-02-04T13:22:02;7.80;99.90
21698;DHT22;11010;49.548;11.926;2024-02-04T13:24:33;7.70;99.90
21698;DHT22;11010;49.548;11.926;2024-02-04T13:27:02;7.60;99.90
21698;DHT22;11010;49.548;11.926;2024-02-04T13:29:30;7.80;99.90
21698;DHT22;11010;49.548;11.926;2024-02-04T13:31:57;7.80;99.90
21698;DHT22;11010;49.548;11.926;2024-02-04T13:34:25;7.70;99.90
21698;DHT22;11010;49.548;11.926;2024-02-04T13:36:52;7.80;99.90
21698;DHT22;11010;49.548;11.926;2024-02-04T13:39:20;7.80;99.90
21698;DHT22;11010;49.548;11.926;2024-02-04T13:41:47;7.80;99.90
21698;DHT22;11010;49.548;11.926;2024-02-04T13:44:14;7.80;99.90
21698;DHT22;11010;49.548;11.926;2024-02-04T13:46:41;7.80;99.90
21698;DHT22;11010;49.548;11.926;2024-02-04T13:49:10;7.90;99.90
21698;DHT22;11010;49.548;11.926;2024-02-04T13:51:40;7.90;99.90
21698;DHT22;11010;49.548;11.926;2024-02-04T13:54:12;7.90;99.90
21698;DHT22;11010;49.548;11.926;2024-02-04T13:56:45;7.80;99.90
21698;DHT22;11010;49.548;11.926;2024-02-04T13:59:13;7.90;99.90
21698;DHT22;11010;49.548;11.926;2024-02-04T14:01:40;7.80;99.90
21698;DHT22;11010;49.548;11.926;2024-02-04T14:04:08;7.90;99.90
21698;DHT22;11010;49.548;11.926;2024-02-04T14:06:35;7.80;99.90
21698;DHT22;11010;49.548;11.926;2024-02-04T14:09:03;7.80;99.90
21698;DHT22;11010;49.548;11.926;2024-02-04T14:11:32;7.90;99.90
21698;DHT22;11010;49.548;11.926;2024-02-04T14:14:00;7.90;99.90
21698;DHT22;11010;49.548;11.926;2024-02-04T14:16:28;7.80;99.90
21698;DHT22;11010;49.548;11.926;2024-02-04T14:18:55;7.80;99.90
21698;DHT22;11010;49.548;11.926;2024-02-04T14:21:27;7.70;99.90
21698;DHT22;11010;49.548;11.926;2024-02-04T14:23:54;7.80;99.90
21698;DHT22;11010;49.548;11.926;2024-02-04T14:26:22;7.90;99.90
21698;DHT22;11010;49.548;11.926;2024-02-04T14:28:49;7.70;99.90
21698;DHT22;11010;49.548;11.926;2024-02-04T14:31:17;7.70;99.90
21698;DHT22;11010;49.548;11.926;2024-02-04T14:33:45;7.90;99.90
21698;DHT22;11010;49.548;11.926;2024-02-04T14:36:14;7.70;99.90
21698;DHT22;11010;49.548;11.926;2024-02-04T14:38:42;7.70;99.90
21698;DHT22;11010;49.548;11.926;2024-02-04T14:41:09;7.70;99.90
21698;DHT22;11010;49.548;11.926;2024-02-04T14:43:36;7.60;99.90
21698;DHT22;11010;49.548;11.926;2024-02-04T14:46:04;7.60;99.90
21698;DHT22;11010;49.548;11.926;2024-02-04T14:48:32;7.80;99.90
21698;DHT22;11010;49.548;11.926;2024-02-04T14:50:59;7.60;99.90
21698;DHT22;11010;49.548;11.926;2024-02-04T14:53:26;7.70;99.90
21698;DHT22;11010;49.548;11.926;2024-02-04T14:55:54;7.70;99.90
21698;DHT22;11010;49.548;11.926;2024-02-04T14:58:24;7.70;99.90
21698;DHT22;11010;49.548;11.926;2024-02-04T15:00:52;7.80;99.90
21698;DHT22;11010;49.548;11.926;2024-02-04T15:03:19;7.70;99.90
21698;DHT22;11010;49.548;11.926;2024-02-04T15:05:47;7.40;99.90
21698;DHT22;11010;49.548;11.926;2024-02-04T15:08:14;7.50;99.90
21698;DHT22;11010;49.548;11.926;2024-02-04T15:10:41;7.70;99.90
21698;DHT22;11010;49.548;11.926;2024-02-04T15:13:09;7.50;99.90
21698;DHT22;11010;49.548;11.926;2024-02-04T15:15:37;7.50;99.90
21698;DHT22;11010;49.548;11.926;2024-02-04T15:18:06;7.60;99.90
21698;DHT22;11010;49.548;11.926;2024-02-04T15:20:34;7.60;99.90
21698;DHT22;11010;49.548;11.926;2024-02-04T15:23:04;7.40;99.90
21698;DHT22;11010;49.548;11.926;2024-02-04T15:25:32;7.40;99.90
21698;DHT22;11010;49.548;11.926;2024-02-04T15:28:00;7.50;99.90
21698;DHT22;11010;49.548;11.926;2024-02-04T15:30:28;7.60;99.90
21698;DHT22;11010;49.548;11.926;2024-02-04T15:32:57;7.40;99.90
21698;DHT22;11010;49.548;11.926;2024-02-04T15:35:25;7.60;99.90
21698;DHT22;11010;49.548;11.926;2024-02-04T15:37:52;7.40;99.90
21698;DHT22;11010;49.548;11.926;2024-02-04T15:40:20;7.70;99.90
21698;DHT22;11010;49.548;11.926;2024-02-04T15:42:49;7.50;99.90
21698;DHT22;11010;49.548;11.926;2024-02-04T15:45:16;7.60;99.90